Terminal Aerodrome Forecast
Issued by NWS

Home | Current Version | Previous Version | Text Only | Print | Product List | Glossary On
Versions: 1 2 3 4 5 6 7 8 9 10 11 12 13 14 15 16 17
000
FTUS43 KICT 251730
TAFHUT
TAF
KHUT 251730Z 2518/2618 22010KT P6SM BKN200
     FM252100 32015KT P6SM SCT080 BKN200
     FM260000 36020G30KT P6SM OVC050
     FM261200 36015G25KT P6SM BKN250=

USA.gov is the U.S. government's official web portal to all federal, state and local government web resources and services.